アンカレッジ/テッド・スティーブンス の空港の天気 - METARとTAF

テッド・スティーブンス・アンカレッジ国際空港 ( PANC / ANC ) - アメリカ アラスカ州アンカレッジ
飛行場実況気象(Metar)
観測時間09/24 17:53 AKDT (09/25 01:53 UTC)
風向・風速南 9m/s 瞬間風速14m/s
視程10km以上
天気現象
少しの雲 雲底高度 1310m
全天の4割程度の雲 雲底高度 1520m
全天の8割程度の雲 雲底高度 3660m
全天の8割程度の雲 雲底高度 6100m
気温13.9℃
湿度55%
気圧1006hPa
METARPANC 250153Z 19017G28KT 10SM FEW043 SCT050CB BKN120 BKN200 14/05 A2971 RMK AO2 PK WND 18030/0109 SLP060 SH DSNT NW-E CB NW AND DSNT NE MOV NE T01390050
過去の天気等 Google飛行場航空写真 Wunderground天気予報

過去48時間のMETAR

飛行場予報(TAF)
発表時間: 9/24 15:40 AKDT (9/24 23:40 UTC)
予報対象時間: 24日16時 AKDT ~ 25日22時 AKDT
風向・風速南 9m/s 瞬間風速 14m/s
視程10km以上
天気現象周辺でしゅう雨
少しの雲 雲底高度 910m
全天の4割程度の雲 雲底高度 1520m
全天の8割程度の雲 雲底高度 2740m
25日2時 AKDT から
風向・風速南 5m/s 瞬間風速 9m/s
視程10km以上
少しの雲 雲底高度 1520m
全天の8割程度の雲 雲底高度 2740m
25日18時 AKDT から
風向・風速南南西 4m/s
視程10km以上
全天の8割程度の雲 雲底高度 2740m
PANC 242340Z 2500/2606 18018G28KT P6SM VCSH FEW030 SCT050 BKN090
FM251000 18010G18KT P6SM FEW050 BKN090
FM260200 20008KT P6SM BKN090